KDPG/DPG METAR and TAF weather

Enter ICAO airport designator
Station Type Date Time Source
KDPG METAR 2018/01/18 23:55 UTC NOAA

KDPG 182355Z 13009KT 35SM FEW090 SCT150 BKN170 OVC190 10/M01 A2999 RMK ACSL DSNT NE SE AND SW SLP150 T01021012 10133 20071 56021 LAST


Station Type Date Time Source
KDPG Decoded METAR 2018/01/18 23:55 UTC NOAA

Dugway Proving Grounds, UT, United States (KDPG) 40-10N 112-56W 1325M
Jan 18, 2018 - 06:55 PM EST / 2018.01.18 2355 UTC
Wind: from the SE (130 degrees) at 10 MPH (9 KT):0
Visibility: 35 mile(s):0
Sky conditions: overcast
Temperature: 50.4 F (10.2 C)
Dew Point: 29.8 F (-1.2 C)
Relative Humidity: 44%
Pressure (altimeter): 29.99 in. Hg (1015 hPa)
Pressure tendency: 0.06 inches (2.1 hPa) lower than three hours ago
ob: KDPG 182355Z 13009KT 35SM FEW090 SCT150 BKN170 OVC190 10/M01 A2999 RMK ACSL DSNT NE SE AND SW SLP150 T01021012 10133 20071 56021 LAST
cycle: 0

Station Type Date Time Source
KDPG TAF UTC NOAA

Error!


Example: see airport list